Speaks, Texas
Current Conditions -  °F | °C
As of 6:35 PM on Friday 21 Nov 2014 (Local Time) from K66R Reporting Station
Overcast Overcast  
Wind Chill: 68°   Ceiling: 3600
Heat Index: 68°   Visibility: 10mi
Dew Point: 65°   Wind: 8mph
Humidity: 90%   Direction: 140°SE
Pressure: 30.07"   Gusts: NA
Location:  29.25°N, 96.7°W
Report Text: K66R 220035Z AUTO 14007KT 10SM SCT024 OVC036 20/18 A3007 RMK AO2 T02000183
Loading
Personal Weather Stations






























Interactive Weather Map New forecast layout! Learn more

10-Day Weather Forecast

Advertisements
Track Severe Weather on mobile